Time;durP1;ratioP1;P1;durP2;ratioP2;P2;SDS_P1;SDS_P2;PMS_P1;PMS_P2;Temp;Humidity;BMP_temperature;BMP_pressure;BME280_temperature;BME280_humidity;BME280_pressure;Samples;Min_cycle;Max_cycle;Signal;HPM_P1;HPM_P2
2022/07/24 00:01:39;;;;;;;4.20;3.30;;;;;;;;;;4954166;28;20294;-75
2022/07/24 00:04:07;;;;;;;3.80;2.80;;;;;;;;;;4954132;29;20207;-76
2022/07/24 00:06:34;;;;;;;4.03;2.58;;;;;;;;;;4958866;28;20267;-75
2022/07/24 00:09:02;;;;;;;4.38;2.63;;;;;;;;;;4954207;29;20249;-74
2022/07/24 00:11:29;;;;;;;3.83;2.50;;;;;;;;;;4957630;28;20667;-75
2022/07/24 00:13:56;;;;;;;2.77;2.57;;;;;;;;;;4954127;29;20258;-74
2022/07/24 00:16:25;;;;;;;4.10;2.40;;;;;;;;;;4954443;28;20636;-76
2022/07/24 00:18:52;;;;;;;2.97;2.60;;;;;;;;;;4954126;28;20246;-75
2022/07/24 00:21:19;;;;;;;3.00;2.50;;;;;;;;;;4958233;28;20230;-76
2022/07/24 00:23:47;;;;;;;3.90;2.37;;;;;;;;;;4962750;28;20625;-77
2022/07/24 00:26:14;;;;;;;2.63;2.20;;;;;;;;;;4959339;28;20611;-75
2022/07/24 00:28:41;;;;;;;2.90;2.43;;;;;;;;;;4953100;28;20722;-75
2022/07/24 00:31:08;;;;;;;4.33;2.27;;;;;;;;;;4953830;28;20310;-75
2022/07/24 00:33:37;;;;;;;4.77;2.37;;;;;;;;;;4952827;29;20229;-75
2022/07/24 00:36:05;;;;;;;3.57;2.50;;;;;;;;;;4953817;29;20234;-76
2022/07/24 00:38:32;;;;;;;4.72;2.58;;;;;;;;;;4953166;28;20286;-76
2022/07/24 00:40:59;;;;;;;4.17;2.40;;;;;;;;;;4953624;28;20297;-75
2022/07/24 00:43:26;;;;;;;3.23;2.60;;;;;;;;;;4954002;28;20297;-74
2022/07/24 00:45:53;;;;;;;3.00;2.70;;;;;;;;;;4954044;29;20239;-75
2022/07/24 00:48:20;;;;;;;3.07;2.57;;;;;;;;;;4966912;28;20241;-74
2022/07/24 00:50:49;;;;;;;4.07;2.40;;;;;;;;;;4973200;28;20297;-75
2022/07/24 00:53:17;;;;;;;5.05;3.03;;;;;;;;;;4957286;28;20306;-76
2022/07/24 00:55:44;;;;;;;3.37;2.47;;;;;;;;;;4953924;29;20613;-76
2022/07/24 00:58:12;;;;;;;3.87;2.93;;;;;;;;;;4964652;28;20262;-76
2022/07/24 01:00:39;;;;;;;3.40;2.83;;;;;;;;;;4956108;28;20202;-75
2022/07/24 01:03:07;;;;;;;2.77;2.57;;;;;;;;;;4967642;28;20226;-75
2022/07/24 01:05:34;;;;;;;3.27;2.60;;;;;;;;;;4953440;29;20749;-75
2022/07/24 01:08:03;;;;;;;3.57;3.03;;;;;;;;;;4956272;28;20286;-75
2022/07/24 01:10:30;;;;;;;3.90;3.50;;;;;;;;;;4956896;29;20238;-75
2022/07/24 01:12:58;;;;;;;4.80;3.17;;;;;;;;;;4955893;28;20262;-75
2022/07/24 01:15:25;;;;;;;3.60;2.90;;;;;;;;;;4962707;28;20237;-75
2022/07/24 01:17:52;;;;;;;3.93;2.90;;;;;;;;;;4959664;28;20674;-76
2022/07/24 01:20:20;;;;;;;3.73;2.90;;;;;;;;;;4957201;29;20641;-75
2022/07/24 01:22:48;;;;;;;3.80;3.10;;;;;;;;;;4963602;28;20298;-74
2022/07/24 01:25:16;;;;;;;4.53;3.00;;;;;;;;;;4974598;28;20203;-76
2022/07/24 01:27:43;;;;;;;3.83;3.17;;;;;;;;;;4971042;28;20207;-74
2022/07/24 01:30:11;;;;;;;3.73;3.13;;;;;;;;;;4956543;29;20263;-75
2022/07/24 01:32:38;;;;;;;5.07;3.80;;;;;;;;;;4958219;28;20207;-75
2022/07/24 01:35:06;;;;;;;3.67;3.10;;;;;;;;;;4963474;28;20628;-74
2022/07/24 01:37:33;;;;;;;4.53;3.20;;;;;;;;;;4956949;28;20606;-74
2022/07/24 01:40:02;;;;;;;3.70;3.40;;;;;;;;;;4956350;28;20207;-74
2022/07/24 01:42:29;;;;;;;3.80;3.50;;;;;;;;;;4956736;29;20231;-75
2022/07/24 01:44:56;;;;;;;4.37;3.97;;;;;;;;;;4956080;28;20243;-75
2022/07/24 01:47:24;;;;;;;4.07;3.47;;;;;;;;;;4956869;29;20294;-74
2022/07/24 01:49:51;;;;;;;4.60;3.90;;;;;;;;;;4956631;29;20306;-75
2022/07/24 01:52:18;;;;;;;4.20;3.40;;;;;;;;;;4967431;28;20245;-75
2022/07/24 01:54:45;;;;;;;4.07;3.73;;;;;;;;;;4972403;28;20268;-75
2022/07/24 01:57:14;;;;;;;3.80;3.50;;;;;;;;;;4963586;28;20294;-76
2022/07/24 01:59:41;;;;;;;5.57;3.77;;;;;;;;;;4942491;29;20262;-75
2022/07/24 02:02:08;;;;;;;4.20;3.23;;;;;;;;;;4936605;29;20300;-74
2022/07/24 02:04:35;;;;;;;4.17;3.40;;;;;;;;;;4937420;29;20287;-76
2022/07/24 02:07:02;;;;;;;5.10;3.30;;;;;;;;;;4937238;29;20204;-76
2022/07/24 02:09:30;;;;;;;4.43;3.43;;;;;;;;;;4937080;29;20250;-75
2022/07/24 02:11:57;;;;;;;3.70;3.40;;;;;;;;;;4937227;29;20715;-75
2022/07/24 02:14:26;;;;;;;4.77;3.40;;;;;;;;;;4936474;29;20228;-76
2022/07/24 02:16:53;;;;;;;6.13;3.63;;;;;;;;;;4936478;29;20242;-74
2022/07/24 02:19:22;;;;;;;4.90;3.70;;;;;;;;;;4934121;29;20298;-75
2022/07/24 02:21:50;;;;;;;5.50;4.10;;;;;;;;;;4936657;29;20618;-74
2022/07/24 02:24:17;;;;;;;4.97;4.50;;;;;;;;;;4936481;29;20203;-74
2022/07/24 02:26:44;;;;;;;8.20;4.50;;;;;;;;;;4936845;29;20235;-75
2022/07/24 02:29:11;;;;;;;6.00;4.37;;;;;;;;;;4944650;28;20234;-75
2022/07/24 02:31:40;;;;;;;4.50;4.10;;;;;;;;;;4954531;29;20270;-74
2022/07/24 02:34:07;;;;;;;4.30;3.90;;;;;;;;;;4938389;29;20286;-75
2022/07/24 02:36:35;;;;;;;4.43;3.70;;;;;;;;;;4935979;29;20227;-75
2022/07/24 02:39:02;;;;;;;4.97;3.63;;;;;;;;;;4935688;29;20238;-76
2022/07/24 02:41:29;;;;;;;3.87;3.57;;;;;;;;;;4936255;29;20246;-75
2022/07/24 02:43:56;;;;;;;4.83;3.53;;;;;;;;;;4935844;29;20688;-75
2022/07/24 02:46:23;;;;;;;4.13;3.60;;;;;;;;;;4936255;29;20239;-75
2022/07/24 02:48:52;;;;;;;5.23;3.90;;;;;;;;;;4936229;29;20738;-75
2022/07/24 02:51:19;;;;;;;4.50;3.87;;;;;;;;;;4936088;29;20294;-74
2022/07/24 02:53:46;;;;;;;5.03;3.90;;;;;;;;;;4936412;29;20212;-75
2022/07/24 02:56:14;;;;;;;4.80;3.70;;;;;;;;;;4936005;29;20323;-75
2022/07/24 02:58:41;;;;;;;4.37;3.90;;;;;;;;;;4939860;28;20247;-76
2022/07/24 03:01:08;;;;;;;4.57;4.17;;;;;;;;;;4955477;29;20242;-75
2022/07/24 03:03:35;;;;;;;4.17;3.73;;;;;;;;;;4955499;29;20242;-75
2022/07/24 03:06:04;;;;;;;4.80;4.00;;;;;;;;;;4955358;29;20246;-75
2022/07/24 03:08:31;;;;;;;4.93;3.90;;;;;;;;;;4955346;28;20270;-76
2022/07/24 03:10:58;;;;;;;4.17;3.77;;;;;;;;;;4955145;29;20238;-75
2022/07/24 03:13:25;;;;;;;6.03;4.23;;;;;;;;;;4954349;29;20230;-75
2022/07/24 03:15:53;;;;;;;4.80;3.90;;;;;;;;;;4955328;29;20262;-75
2022/07/24 03:18:20;;;;;;;5.03;4.53;;;;;;;;;;4954824;29;20754;-75
2022/07/24 03:20:47;;;;;;;5.47;4.40;;;;;;;;;;4955467;29;20226;-76
2022/07/24 03:23:16;;;;;;;4.70;4.20;;;;;;;;;;4954487;28;20309;-76
2022/07/24 03:25:43;;;;;;;4.53;4.13;;;;;;;;;;4969579;28;20612;-75
2022/07/24 03:28:10;;;;;;;4.53;4.10;;;;;;;;;;4971603;28;20230;-75
2022/07/24 03:30:37;;;;;;;4.30;3.90;;;;;;;;;;4954215;28;20758;-75
2022/07/24 03:33:04;;;;;;;5.17;4.00;;;;;;;;;;4955329;29;20286;-74
2022/07/24 03:35:32;;;;;;;4.37;3.97;;;;;;;;;;4956262;28;20263;-75
2022/07/24 03:37:59;;;;;;;5.87;3.97;;;;;;;;;;4965085;28;20294;-75
2022/07/24 03:40:27;;;;;;;4.90;4.50;;;;;;;;;;4954729;29;20645;-75
2022/07/24 03:42:55;;;;;;;5.43;4.20;;;;;;;;;;4953978;28;20667;-75
2022/07/24 03:45:22;;;;;;;4.50;4.07;;;;;;;;;;4954562;29;20203;-75
2022/07/24 03:47:49;;;;;;;5.40;4.00;;;;;;;;;;4954717;29;20294;-75
2022/07/24 03:50:16;;;;;;;4.60;3.90;;;;;;;;;;4954586;29;20294;-75
2022/07/24 03:52:43;;;;;;;4.27;3.57;;;;;;;;;;4954413;29;20295;-75
2022/07/24 03:55:11;;;;;;;3.87;3.43;;;;;;;;;;4954733;28;20585;-75
2022/07/24 03:57:39;;;;;;;5.90;3.90;;;;;;;;;;4962355;28;20318;-75
2022/07/24 04:00:09;;;;;;;7.33;4.00;;;;;;;;;;4950607;28;20638;-75
2022/07/24 04:02:36;;;;;;;4.77;3.80;;;;;;;;;;4935348;29;20291;-75
2022/07/24 04:05:07;;;;;;;4.33;3.93;;;;;;;;;;4934857;29;20268;-76
2022/07/24 04:07:34;;;;;;;4.90;4.10;;;;;;;;;;4948083;29;20298;-75
2022/07/24 04:10:01;;;;;;;5.43;3.93;;;;;;;;;;4954040;29;20290;-76
2022/07/24 04:12:28;;;;;;;4.70;4.00;;;;;;;;;;4954215;28;20238;-75
2022/07/24 04:14:57;;;;;;;5.00;4.17;;;;;;;;;;4948969;29;20314;-75
2022/07/24 04:17:24;;;;;;;5.00;4.00;;;;;;;;;;4937543;29;20287;-75
2022/07/24 04:19:51;;;;;;;4.93;4.40;;;;;;;;;;4942152;29;20672;-75
2022/07/24 04:22:19;;;;;;;5.63;5.00;;;;;;;;;;4938727;29;20294;-75
2022/07/24 04:24:46;;;;;;;5.03;4.53;;;;;;;;;;4934711;29;20290;-75
2022/07/24 04:27:13;;;;;;;6.93;4.40;;;;;;;;;;4933806;29;20295;-75
2022/07/24 04:29:40;;;;;;;4.40;4.00;;;;;;;;;;4945869;29;20671;-76
2022/07/24 04:32:09;;;;;;;5.00;4.47;;;;;;;;;;4935352;29;20250;-75
2022/07/24 04:34:36;;;;;;;4.50;4.03;;;;;;;;;;4934194;29;20299;-75
2022/07/24 04:37:03;;;;;;;5.77;4.63;;;;;;;;;;4948783;29;20286;-75
2022/07/24 04:39:30;;;;;;;5.03;4.30;;;;;;;;;;4947970;28;20239;-75
2022/07/24 04:41:58;;;;;;;5.37;4.50;;;;;;;;;;4936101;29;20235;-75
2022/07/24 04:44:25;;;;;;;5.00;4.53;;;;;;;;;;4938788;29;20262;-74
2022/07/24 04:46:52;;;;;;;5.03;4.43;;;;;;;;;;4942005;29;20243;-75
2022/07/24 04:49:20;;;;;;;4.23;3.83;;;;;;;;;;4949576;28;20287;-75
2022/07/24 04:51:48;;;;;;;4.97;4.57;;;;;;;;;;4952397;28;20290;-75
2022/07/24 04:54:15;;;;;;;5.37;4.33;;;;;;;;;;4938404;29;20238;-75
2022/07/24 04:56:42;;;;;;;5.27;4.40;;;;;;;;;;4952755;29;20317;-75
2022/07/24 04:59:09;;;;;;;4.93;4.43;;;;;;;;;;4938295;29;20735;-76
2022/07/24 05:01:36;;;;;;;5.60;4.60;;;;;;;;;;4938538;29;20249;-75
2022/07/24 05:04:04;;;;;;;5.97;5.03;;;;;;;;;;4937683;29;20655;-75
2022/07/24 05:06:32;;;;;;;5.73;4.40;;;;;;;;;;4938517;29;20291;-75
2022/07/24 05:08:59;;;;;;;4.57;4.17;;;;;;;;;;4937931;29;20243;-75
2022/07/24 05:11:26;;;;;;;6.43;5.13;;;;;;;;;;4953068;28;20207;-75
2022/07/24 05:13:54;;;;;;;7.93;5.20;;;;;;;;;;4957148;29;20294;-75
2022/07/24 05:16:21;;;;;;;5.03;4.53;;;;;;;;;;4943953;28;20262;-75
2022/07/24 05:18:48;;;;;;;5.77;5.23;;;;;;;;;;4938087;29;20242;-75
2022/07/24 05:21:15;;;;;;;5.53;4.93;;;;;;;;;;4937383;29;20208;-75
2022/07/24 05:23:44;;;;;;;5.37;4.87;;;;;;;;;;4937316;29;20208;-75
2022/07/24 05:26:11;;;;;;;5.13;4.63;;;;;;;;;;4939104;29;20295;-75
2022/07/24 05:28:38;;;;;;;6.77;5.73;;;;;;;;;;4937068;29;20237;-75
2022/07/24 05:31:07;;;;;;;6.47;5.20;;;;;;;;;;4941652;29;20631;-75
2022/07/24 05:33:34;;;;;;;5.70;5.03;;;;;;;;;;4937295;29;20668;-74
2022/07/24 05:36:01;;;;;;;5.63;5.03;;;;;;;;;;4937254;29;20310;-75
2022/07/24 05:38:29;;;;;;;5.13;4.63;;;;;;;;;;4937226;29;20235;-76
2022/07/24 05:40:57;;;;;;;6.73;5.10;;;;;;;;;;4937565;29;20626;-75
2022/07/24 05:43:24;;;;;;;5.17;4.43;;;;;;;;;;4945658;28;20291;-76
2022/07/24 05:45:52;;;;;;;4.70;4.20;;;;;;;;;;4938396;29;20256;-75
2022/07/24 05:48:19;;;;;;;4.23;3.93;;;;;;;;;;4955000;29;20762;-75
2022/07/24 05:50:46;;;;;;;4.07;3.70;;;;;;;;;;4937619;29;20232;-75
2022/07/24 05:53:13;;;;;;;5.50;3.55;;;;;;;;;;4936602;29;20238;-75
2022/07/24 05:55:41;;;;;;;4.40;3.72;;;;;;;;;;4937206;29;20754;-75
2022/07/24 05:58:09;;;;;;;4.50;3.63;;;;;;;;;;4944266;28;20266;-75
2022/07/24 06:00:36;;;;;;;4.45;3.90;;;;;;;;;;4956702;29;20290;-75
2022/07/24 06:03:03;;;;;;;3.63;3.33;;;;;;;;;;4956759;29;20298;-75
2022/07/24 06:05:31;;;;;;;5.05;3.65;;;;;;;;;;4938337;29;20227;-74
2022/07/24 06:07:58;;;;;;;4.10;3.22;;;;;;;;;;4936418;29;20242;-75
2022/07/24 06:10:25;;;;;;;3.35;3.10;;;;;;;;;;4937350;29;20295;-75
2022/07/24 06:12:52;;;;;;;3.42;3.08;;;;;;;;;;4936772;29;20290;-74
2022/07/24 06:15:21;;;;;;;4.40;3.10;;;;;;;;;;4936741;29;20719;-75
2022/07/24 06:17:48;;;;;;;4.22;3.00;;;;;;;;;;4936477;29;20235;-75
2022/07/24 06:20:16;;;;;;;4.32;2.95;;;;;;;;;;4936498;29;20325;-75
2022/07/24 06:22:44;;;;;;;4.35;2.83;;;;;;;;;;4946738;29;20679;-75
2022/07/24 06:25:12;;;;;;;5.50;2.80;;;;;;;;;;4950171;28;20234;-74
2022/07/24 06:27:41;;;;;;;3.15;2.88;;;;;;;;;;4943233;29;20639;-75
2022/07/24 06:30:09;;;;;;;3.25;2.72;;;;;;;;;;4936078;29;20291;-75
2022/07/24 06:32:38;;;;;;;3.47;2.70;;;;;;;;;;4936700;29;20294;-75
2022/07/24 06:35:05;;;;;;;3.15;2.45;;;;;;;;;;4935971;29;20290;-75
2022/07/24 06:37:32;;;;;;;3.85;2.63;;;;;;;;;;4936357;29;20270;-75
2022/07/24 06:40:00;;;;;;;2.47;2.28;;;;;;;;;;4935736;29;20295;-75
2022/07/24 06:42:27;;;;;;;3.15;2.40;;;;;;;;;;4936501;29;20215;-77
2022/07/24 06:44:55;;;;;;;3.35;2.35;;;;;;;;;;4939698;29;20291;-76
2022/07/24 06:47:22;;;;;;;2.95;2.20;;;;;;;;;;4939821;29;20294;-75
2022/07/24 06:49:51;;;;;;;4.07;2.08;;;;;;;;;;4949037;28;20234;-75
2022/07/24 06:52:18;;;;;;;2.95;2.10;;;;;;;;;;4939112;29;20306;-75
2022/07/24 06:54:45;;;;;;;2.40;2.20;;;;;;;;;;4944287;29;20286;-75
2022/07/24 06:57:12;;;;;;;2.30;2.10;;;;;;;;;;4953645;29;20259;-75
2022/07/24 06:59:39;;;;;;;4.13;2.03;;;;;;;;;;4952686;29;20281;-75
2022/07/24 07:02:06;;;;;;;3.90;1.90;;;;;;;;;;4959602;28;20230;-75
2022/07/24 07:04:34;;;;;;;2.53;1.67;;;;;;;;;;4954130;28;20235;-75
2022/07/24 07:07:02;;;;;;;2.65;1.90;;;;;;;;;;4954965;29;20286;-75
2022/07/24 07:09:29;;;;;;;2.30;2.10;;;;;;;;;;4955423;29;20286;-75
2022/07/24 07:11:57;;;;;;;3.08;1.75;;;;;;;;;;4955198;29;20282;-75
2022/07/24 07:14:24;;;;;;;2.10;1.90;;;;;;;;;;4955360;28;20239;-75
2022/07/24 07:16:51;;;;;;;2.03;1.73;;;;;;;;;;4955068;28;20665;-75
2022/07/24 07:19:18;;;;;;;2.10;1.83;;;;;;;;;;4954731;28;20235;-75
2022/07/24 07:21:46;;;;;;;1.77;1.67;;;;;;;;;;4954499;29;20203;-76
2022/07/24 07:24:14;;;;;;;1.95;1.60;;;;;;;;;;4954876;29;20266;-75
2022/07/24 07:26:41;;;;;;;2.03;1.58;;;;;;;;;;4955235;29;20230;-76
2022/07/24 07:29:09;;;;;;;1.80;1.60;;;;;;;;;;4953404;28;20262;-77
2022/07/24 07:31:36;;;;;;;4.15;1.98;;;;;;;;;;4954840;28;20630;-76
2022/07/24 07:34:03;;;;;;;2.10;1.98;;;;;;;;;;4953950;28;20267;-76
2022/07/24 07:36:31;;;;;;;3.00;1.70;;;;;;;;;;4954618;29;20260;-76
2022/07/24 07:38:59;;;;;;;1.90;1.70;;;;;;;;;;4951386;29;20246;-76
2022/07/24 07:41:27;;;;;;;2.10;1.60;;;;;;;;;;4953949;28;20282;-76
2022/07/24 07:43:54;;;;;;;1.70;1.60;;;;;;;;;;4954961;28;20263;-75
2022/07/24 07:46:22;;;;;;;3.42;1.60;;;;;;;;;;4954460;29;20271;-75
2022/07/24 07:48:49;;;;;;;2.55;1.63;;;;;;;;;;4961094;28;20241;-75
2022/07/24 07:51:16;;;;;;;2.78;1.70;;;;;;;;;;4956256;28;20239;-76
2022/07/24 07:53:43;;;;;;;2.10;1.65;;;;;;;;;;4954392;29;20694;-76
2022/07/24 07:56:10;;;;;;;2.47;1.50;;;;;;;;;;4952585;29;20267;-75
2022/07/24 07:58:39;;;;;;;1.80;1.70;;;;;;;;;;4948582;28;20272;-74
2022/07/24 08:01:06;;;;;;;1.58;1.48;;;;;;;;;;4953706;28;20234;-75
2022/07/24 08:03:33;;;;;;;2.30;1.80;;;;;;;;;;4952221;29;20238;-76
2022/07/24 08:06:03;;;;;;;1.63;1.40;;;;;;;;;;4952567;29;20235;-76
2022/07/24 08:08:31;;;;;;;2.17;1.60;;;;;;;;;;4952565;28;20203;-76
2022/07/24 08:10:58;;;;;;;3.75;1.65;;;;;;;;;;4960362;28;20337;-76
2022/07/24 08:13:26;;;;;;;1.75;1.40;;;;;;;;;;4956013;28;20211;-76
2022/07/24 08:15:54;;;;;;;1.63;1.40;;;;;;;;;;4959136;28;20210;-76
2022/07/24 08:18:21;;;;;;;1.80;1.20;;;;;;;;;;4953517;29;20656;-76
2022/07/24 08:20:49;;;;;;;2.00;1.30;;;;;;;;;;4954280;28;20262;-77
2022/07/24 08:23:16;;;;;;;1.30;1.20;;;;;;;;;;4965810;28;20682;-76
2022/07/24 08:25:43;;;;;;;1.60;1.13;;;;;;;;;;4955900;28;20683;-76
2022/07/24 08:28:10;;;;;;;2.85;1.30;;;;;;;;;;4956399;28;20313;-76
2022/07/24 08:30:38;;;;;;;3.00;1.30;;;;;;;;;;4955180;28;20698;-75
2022/07/24 08:33:06;;;;;;;1.75;1.38;;;;;;;;;;4962205;28;20218;-76
2022/07/24 08:35:33;;;;;;;1.33;1.23;;;;;;;;;;4973364;28;20206;-76
2022/07/24 08:38:01;;;;;;;1.50;1.40;;;;;;;;;;4973414;28;20309;-76
2022/07/24 08:40:34;;;;;;;2.65;1.27;;;;;;;;;;4973356;28;20241;-76
2022/07/24 08:43:01;;;;;;;2.67;1.45;;;;;;;;;;4960573;28;20211;-75
2022/07/24 08:45:28;;;;;;;2.72;1.48;;;;;;;;;;4961512;28;20670;-75
2022/07/24 08:47:56;;;;;;;1.48;1.30;;;;;;;;;;4953381;29;20235;-75
2022/07/24 08:50:25;;;;;;;2.88;1.40;;;;;;;;;;4953732;29;20206;-75
2022/07/24 08:52:53;;;;;;;2.30;1.30;;;;;;;;;;4953561;28;20307;-75
2022/07/24 08:55:20;;;;;;;3.40;1.55;;;;;;;;;;4952862;28;20207;-75
2022/07/24 08:57:47;;;;;;;2.20;1.48;;;;;;;;;;4956343;28;20222;-75
2022/07/24 09:00:15;;;;;;;2.33;1.48;;;;;;;;;;4954956;28;20269;-76
2022/07/24 09:02:42;;;;;;;2.00;1.45;;;;;;;;;;4968082;28;20241;-76
2022/07/24 09:05:10;;;;;;;1.70;1.40;;;;;;;;;;4954937;28;20707;-77
2022/07/24 09:07:39;;;;;;;2.33;1.42;;;;;;;;;;4955478;28;20234;-75
2022/07/24 09:10:08;;;;;;;2.90;1.80;;;;;;;;;;4957074;28;21043;-74
2022/07/24 09:12:37;;;;;;;2.50;1.55;;;;;;;;;;4952645;29;20723;-75
2022/07/24 09:15:12;;;;;;;1.58;1.30;;;;;;;;;;4953465;29;20618;-74
2022/07/24 09:17:48;;;;;;;1.60;1.50;;;;;;;;;;4960022;28;20321;-74
2022/07/24 09:20:15;;;;;;;2.90;2.00;;;;;;;;;;4954179;28;20286;-75
2022/07/24 09:22:44;;;;;;;3.97;1.85;;;;;;;;;;4952597;28;20242;-76
2022/07/24 09:25:13;;;;;;;4.75;2.05;;;;;;;;;;4960773;28;20563;-76
2022/07/24 09:27:41;;;;;;;2.55;1.60;;;;;;;;;;4956603;28;20290;-75
2022/07/24 09:30:09;;;;;;;3.25;2.35;;;;;;;;;;4956628;28;20235;-75
2022/07/24 09:32:37;;;;;;;3.08;1.92;;;;;;;;;;4953738;28;20214;-75
2022/07/24 09:35:04;;;;;;;3.97;1.88;;;;;;;;;;4954751;28;20304;-76
2022/07/24 09:37:32;;;;;;;2.90;1.75;;;;;;;;;;4961055;28;20298;-76
2022/07/24 09:40:09;;;;;;;2.20;1.98;;;;;;;;;;4956817;28;20210;-76
2022/07/24 09:42:39;;;;;;;2.13;1.88;;;;;;;;;;4957186;28;20288;-75
2022/07/24 09:45:08;;;;;;;2.83;1.90;;;;;;;;;;4957543;28;20207;-74
2022/07/24 09:47:36;;;;;;;4.00;2.17;;;;;;;;;;4963439;28;20572;-74
2022/07/24 09:50:13;;;;;;;3.08;2.00;;;;;;;;;;4953806;28;20209;-75
2022/07/24 09:52:42;;;;;;;2.63;1.95;;;;;;;;;;4953284;28;20290;-75
2022/07/24 09:55:22;;;;;;;1.98;1.63;;;;;;;;;;4958026;28;20206;-75
2022/07/24 09:57:50;;;;;;;4.22;1.90;;;;;;;;;;4957891;28;20285;-75
2022/07/24 10:00:18;;;;;;;2.28;2.00;;;;;;;;;;4950260;28;20834;-74
2022/07/24 10:02:46;;;;;;;4.70;2.20;;;;;;;;;;4947784;29;20238;-75
2022/07/24 10:05:14;;;;;;;2.28;1.75;;;;;;;;;;4950543;29;20564;-75
2022/07/24 10:07:42;;;;;;;2.20;2.00;;;;;;;;;;4935502;29;20553;-75
2022/07/24 10:10:10;;;;;;;1.80;1.65;;;;;;;;;;4931716;29;20586;-75
2022/07/24 10:12:38;;;;;;;2.08;1.77;;;;;;;;;;4930732;29;20240;-75
2022/07/24 10:15:06;;;;;;;2.08;1.90;;;;;;;;;;4933288;29;20219;-75
2022/07/24 10:17:59;;;;;;;2.10;1.90;;;;;;;;;;4937200;29;20411;-75
2022/07/24 10:20:31;;;;;;;3.20;2.25;;;;;;;;;;4935013;29;20997;-75
2022/07/24 10:23:03;;;;;;;3.63;1.92;;;;;;;;;;4935081;29;20244;-75
2022/07/24 10:25:32;;;;;;;3.55;3.25;;;;;;;;;;4932877;29;20203;-75
2022/07/24 10:28:03;;;;;;;6.75;6.15;;;;;;;;;;4935093;29;20286;-75
2022/07/24 10:30:31;;;;;;;6.53;5.32;;;;;;;;;;4933218;29;20204;-75
2022/07/24 10:32:58;;;;;;;3.15;2.88;;;;;;;;;;4934693;29;20703;-75
2022/07/24 10:35:28;;;;;;;2.88;2.45;;;;;;;;;;4938988;29;20204;-75
2022/07/24 10:38:00;;;;;;;3.55;3.10;;;;;;;;;;4933899;29;20238;-75
2022/07/24 10:40:31;;;;;;;4.13;2.78;;;;;;;;;;4930087;29;20298;-75
2022/07/24 10:43:16;;;;;;;8.23;7.40;;;;;;;;;;4933972;29;20287;-75
2022/07/24 10:45:44;;;;;;;3.70;2.60;;;;;;;;;;4933739;29;20235;-75
2022/07/24 10:48:32;;;;;;;2.28;2.08;;;;;;;;;;4935726;29;20226;-75
2022/07/24 10:51:05;;;;;;;2.70;1.90;;;;;;;;;;4938496;29;20294;-75
2022/07/24 10:53:44;;;;;;;2.20;2.00;;;;;;;;;;4941299;29;20211;-75
2022/07/24 10:56:18;;;;;;;2.92;2.10;;;;;;;;;;4936674;29;20249;-76
2022/07/24 10:58:58;;;;;;;2.90;2.33;;;;;;;;;;4943006;28;20270;-76
2022/07/24 11:01:29;;;;;;;12.32;11.27;;;;;;;;;;4953947;28;20206;-75
2022/07/24 11:03:58;;;;;;;7.20;6.55;;;;;;;;;;4954766;28;20218;-75
2022/07/24 11:06:42;;;;;;;2.67;2.10;;;;;;;;;;4954646;29;20535;-75
2022/07/24 11:09:09;;;;;;;3.85;2.53;;;;;;;;;;4964333;28;20768;-75
2022/07/24 11:11:42;;;;;;;2.35;1.90;;;;;;;;;;4957859;28;20213;-75
2022/07/24 11:14:11;;;;;;;2.50;1.90;;;;;;;;;;4961341;28;20211;-76
2022/07/24 11:16:39;;;;;;;2.67;2.28;;;;;;;;;;4955435;28;20206;-75
2022/07/24 11:19:24;;;;;;;2.97;2.10;;;;;;;;;;4967806;28;20293;-76
2022/07/24 11:22:02;;;;;;;2.90;1.80;;;;;;;;;;4960383;28;20245;-75
2022/07/24 11:24:30;;;;;;;3.30;2.10;;;;;;;;;;4955018;28;20237;-75
2022/07/24 11:26:58;;;;;;;2.53;2.20;;;;;;;;;;4974094;28;20591;-75
2022/07/24 11:29:27;;;;;;;3.08;2.45;;;;;;;;;;4962739;28;20615;-75
2022/07/24 11:31:57;;;;;;;2.70;2.47;;;;;;;;;;4959887;28;20206;-75
2022/07/24 11:34:24;;;;;;;3.13;2.33;;;;;;;;;;4955554;28;20223;-75
2022/07/24 11:36:52;;;;;;;2.90;2.60;;;;;;;;;;4955372;28;20238;-74
2022/07/24 11:39:20;;;;;;;4.53;3.70;;;;;;;;;;4955226;28;20579;-75
2022/07/24 11:41:48;;;;;;;3.75;2.78;;;;;;;;;;4961913;28;20249;-75
2022/07/24 11:44:15;;;;;;;2.45;2.20;;;;;;;;;;4954206;28;20198;-75
2022/07/24 11:46:44;;;;;;;2.10;2.00;;;;;;;;;;4962927;28;20224;-75
2022/07/24 11:49:11;;;;;;;2.67;2.47;;;;;;;;;;4954040;28;20293;-75
2022/07/24 11:51:43;;;;;;;2.90;2.25;;;;;;;;;;4960602;28;20206;-75
2022/07/24 11:54:10;;;;;;;3.50;2.42;;;;;;;;;;4960533;28;20210;-75
2022/07/24 11:56:37;;;;;;;2.65;2.00;;;;;;;;;;4954093;28;20234;-75
2022/07/24 11:59:05;;;;;;;3.00;2.08;;;;;;;;;;4945248;28;20258;-75
2022/07/24 12:01:32;;;;;;;2.25;2.05;;;;;;;;;;4935765;29;20275;-75
2022/07/24 12:04:01;;;;;;;3.20;2.10;;;;;;;;;;4928870;29;20924;-75
2022/07/24 12:06:28;;;;;;;2.50;2.10;;;;;;;;;;4925858;29;20299;-75
2022/07/24 12:08:59;;;;;;;3.50;2.05;;;;;;;;;;4930838;29;20263;-75
2022/07/24 12:11:26;;;;;;;3.50;2.13;;;;;;;;;;4933112;29;20806;-75
2022/07/24 12:13:53;;;;;;;2.97;2.50;;;;;;;;;;4931233;29;20278;-75
2022/07/24 12:16:25;;;;;;;3.28;2.30;;;;;;;;;;4937877;29;20230;-75
2022/07/24 12:18:52;;;;;;;2.38;2.10;;;;;;;;;;4935952;29;20214;-75
2022/07/24 12:21:20;;;;;;;3.35;2.20;;;;;;;;;;4930043;29;20297;-75
2022/07/24 12:23:49;;;;;;;2.83;1.90;;;;;;;;;;4926340;29;20295;-74
2022/07/24 12:26:16;;;;;;;3.75;2.22;;;;;;;;;;4935882;29;20272;-75
2022/07/24 12:28:43;;;;;;;2.85;2.25;;;;;;;;;;4930819;29;20259;-74
2022/07/24 12:31:10;;;;;;;3.28;2.70;;;;;;;;;;4934696;29;20239;-75
2022/07/24 12:33:38;;;;;;;2.67;2.47;;;;;;;;;;4927145;29;20295;-74
2022/07/24 12:36:10;;;;;;;2.72;2.00;;;;;;;;;;4941238;29;20238;-74
2022/07/24 12:38:39;;;;;;;2.38;2.17;;;;;;;;;;4942669;29;20191;-75
2022/07/24 12:41:07;;;;;;;2.30;2.10;;;;;;;;;;4935308;29;20661;-75
2022/07/24 12:43:35;;;;;;;3.00;2.30;;;;;;;;;;4942708;29;20217;-75
2022/07/24 12:46:09;;;;;;;2.67;2.00;;;;;;;;;;4937360;29;20735;-76
2022/07/24 12:48:36;;;;;;;3.08;2.65;;;;;;;;;;4948305;29;20777;-75
2022/07/24 12:51:09;;;;;;;3.42;2.42;;;;;;;;;;4930182;29;20240;-75
2022/07/24 12:53:37;;;;;;;2.10;1.90;;;;;;;;;;4941684;29;20207;-75
2022/07/24 12:56:07;;;;;;;14.50;13.15;;;;;;;;;;4953764;29;20285;-76
2022/07/24 12:58:54;;;;;;;2.92;2.63;;;;;;;;;;4936021;29;20247;-74
2022/07/24 13:01:22;;;;;;;2.88;2.08;;;;;;;;;;4933989;29;20292;-75
2022/07/24 13:03:56;;;;;;;2.50;2.28;;;;;;;;;;4937774;29;20294;-74
2022/07/24 13:06:37;;;;;;;2.80;2.40;;;;;;;;;;4938151;29;20254;-74
2022/07/24 13:09:05;;;;;;;3.95;2.40;;;;;;;;;;4934160;29;20227;-75
2022/07/24 13:11:34;;;;;;;2.22;2.03;;;;;;;;;;4937260;29;20259;-75
2022/07/24 13:14:01;;;;;;;2.47;2.00;;;;;;;;;;4941751;29;20246;-74
2022/07/24 13:16:29;;;;;;;3.08;2.03;;;;;;;;;;4944938;29;20285;-74
2022/07/24 13:18:56;;;;;;;2.22;2.03;;;;;;;;;;4944271;29;20263;-74
2022/07/24 13:21:23;;;;;;;3.15;2.10;;;;;;;;;;4937236;29;20235;-75
2022/07/24 13:23:50;;;;;;;3.88;2.10;;;;;;;;;;4936839;29;20208;-74
2022/07/24 13:26:18;;;;;;;2.15;1.92;;;;;;;;;;4937524;29;20740;-74
2022/07/24 13:28:46;;;;;;;1.83;1.70;;;;;;;;;;4940834;29;20258;-75
2022/07/24 13:31:14;;;;;;;2.00;1.90;;;;;;;;;;4937021;29;20196;-75
2022/07/24 13:33:41;;;;;;;2.28;1.90;;;;;;;;;;4944140;29;20237;-75
2022/07/24 13:36:09;;;;;;;2.63;1.92;;;;;;;;;;4937771;29;20334;-74
2022/07/24 13:38:36;;;;;;;3.17;2.25;;;;;;;;;;4936821;29;20235;-74
2022/07/24 13:41:04;;;;;;;2.88;2.00;;;;;;;;;;4943154;29;20282;-74
2022/07/24 13:43:31;;;;;;;3.47;2.17;;;;;;;;;;4938643;29;20238;-74
2022/07/24 13:45:59;;;;;;;3.00;2.25;;;;;;;;;;4940015;29;20235;-74
2022/07/24 13:48:26;;;;;;;2.20;2.00;;;;;;;;;;4936147;29;20804;-73
2022/07/24 13:50:54;;;;;;;2.10;1.90;;;;;;;;;;4936754;29;20293;-72
2022/07/24 13:53:21;;;;;;;2.75;2.05;;;;;;;;;;4935722;29;20242;-74
2022/07/24 13:55:48;;;;;;;2.28;1.98;;;;;;;;;;4938130;29;20287;-75
2022/07/24 13:58:16;;;;;;;2.42;2.05;;;;;;;;;;4942844;29;20311;-75
2022/07/24 14:00:43;;;;;;;2.17;1.98;;;;;;;;;;4939440;29;20199;-75
2022/07/24 14:03:11;;;;;;;2.38;1.90;;;;;;;;;;4939219;29;20216;-74
2022/07/24 14:05:39;;;;;;;2.05;1.70;;;;;;;;;;4935369;29;20215;-75
2022/07/24 14:08:06;;;;;;;1.90;1.80;;;;;;;;;;4939910;29;20313;-75
2022/07/24 14:10:33;;;;;;;3.63;1.90;;;;;;;;;;4943528;29;20291;-76
2022/07/24 14:13:01;;;;;;;2.42;1.75;;;;;;;;;;4948289;29;20291;-75
2022/07/24 14:15:29;;;;;;;2.08;1.88;;;;;;;;;;4944559;29;20215;-75
2022/07/24 14:17:57;;;;;;;3.97;1.83;;;;;;;;;;4946703;29;20199;-75
2022/07/24 14:20:26;;;;;;;3.05;2.10;;;;;;;;;;4935201;29;20211;-73
2022/07/24 14:22:53;;;;;;;3.00;2.10;;;;;;;;;;4944018;29;20238;-74
2022/07/24 14:25:20;;;;;;;2.35;1.80;;;;;;;;;;4937424;29;20203;-75
2022/07/24 14:27:48;;;;;;;2.70;1.90;;;;;;;;;;4944119;29;20235;-75
2022/07/24 14:30:15;;;;;;;1.90;1.77;;;;;;;;;;4939911;29;20211;-75
2022/07/24 14:32:42;;;;;;;2.05;1.85;;;;;;;;;;4939873;29;20226;-74
2022/07/24 14:35:10;;;;;;;2.25;2.05;;;;;;;;;;4940029;29;20298;-74
2022/07/24 14:37:39;;;;;;;1.83;1.63;;;;;;;;;;4936484;29;20649;-74
2022/07/24 14:40:07;;;;;;;3.25;2.08;;;;;;;;;;4932568;29;20284;-74
2022/07/24 14:42:34;;;;;;;1.88;1.75;;;;;;;;;;4934036;29;20338;-75
2022/07/24 14:45:02;;;;;;;3.45;1.92;;;;;;;;;;4932967;29;20298;-75
2022/07/24 14:47:29;;;;;;;4.00;2.08;;;;;;;;;;4934466;29;20203;-74
2022/07/24 14:49:56;;;;;;;3.05;2.00;;;;;;;;;;4937176;29;20318;-76